Time;durP1;ratioP1;P1;durP2;ratioP2;P2;SDS_P1;SDS_P2;PMS_P1;PMS_P2;Temp;Humidity;BMP_temperature;BMP_pressure;BME280_temperature;BME280_humidity;BME280_pressure;Samples;Min_cycle;Max_cycle;Signal;HPM_P1;HPM_P2
2023/04/21 00:01:28;;;;;;;0.20;0.20;;;;;;;;;;5096073;28;20527;-77
2023/04/21 00:03:54;;;;;;;0.10;0.10;;;;;;;;;;5095567;28;20118;-76
2023/04/21 00:06:21;;;;;;;0.10;0.10;;;;;;;;;;5093875;28;20424;-77
2023/04/21 00:08:47;;;;;;;0.10;0.10;;;;;;;;;;5075578;28;20055;-78
2023/04/21 00:11:13;;;;;;;0.10;0.10;;;;;;;;;;5093235;28;20458;-77
2023/04/21 00:13:39;;;;;;;0.20;0.20;;;;;;;;;;5093163;28;20043;-78
2023/04/21 00:16:05;;;;;;;0.20;0.20;;;;;;;;;;5093131;28;20040;-80
2023/04/21 00:18:30;;;;;;;0.20;0.20;;;;;;;;;;5092876;28;20058;-77
2023/04/21 00:20:55;;;;;;;0.60;0.60;;;;;;;;;;5093264;28;20096;-76
2023/04/21 00:23:21;;;;;;;0.20;0.20;;;;;;;;;;5093092;28;20542;-76
2023/04/21 00:25:46;;;;;;;0.15;0.15;;;;;;;;;;5093214;28;20028;-77
2023/04/21 00:28:12;;;;;;;0.10;0.10;;;;;;;;;;5092894;28;20063;-81
2023/04/21 00:30:37;;;;;;;0.10;0.10;;;;;;;;;;5092804;28;20055;-82
2023/04/21 00:33:03;;;;;;;1.30;0.60;;;;;;;;;;5092936;28;20097;-78
2023/04/21 00:35:29;;;;;;;1.40;1.30;;;;;;;;;;5092995;28;20063;-79
2023/04/21 00:37:55;;;;;;;0.10;0.10;;;;;;;;;;5074810;28;20053;-80
2023/04/21 00:40:20;;;;;;;2.30;0.82;;;;;;;;;;5092868;28;20467;-79
2023/04/21 00:42:46;;;;;;;1.42;0.77;;;;;;;;;;5092862;28;20036;-76
2023/04/21 00:45:13;;;;;;;0.20;0.20;;;;;;;;;;5074115;28;20028;-78
2023/04/21 00:47:39;;;;;;;0.20;0.20;;;;;;;;;;5092644;28;20020;-78
2023/04/21 00:50:05;;;;;;;0.10;0.10;;;;;;;;;;5092438;28;20036;-80
2023/04/21 00:52:30;;;;;;;0.10;0.10;;;;;;;;;;5092877;28;20039;-79
2023/04/21 00:54:56;;;;;;;0.28;0.28;;;;;;;;;;5092772;28;20054;-86
2023/04/21 00:57:21;;;;;;;1.08;0.98;;;;;;;;;;5092623;28;20032;-81
2023/04/21 00:59:48;;;;;;;0.13;0.13;;;;;;;;;;5074355;28;20065;-81
2023/04/21 01:02:15;;;;;;;0.10;0.10;;;;;;;;;;5074388;28;20436;-81
2023/04/21 01:04:40;;;;;;;0.15;0.15;;;;;;;;;;5074437;28;20394;-80
2023/04/21 01:07:07;;;;;;;7.10;6.50;;;;;;;;;;5074810;28;20025;-88
2023/04/21 01:09:33;;;;;;;0.10;0.10;;;;;;;;;;5085712;28;20032;-76
2023/04/21 01:12:08;;;;;;;0.10;0.10;;;;;;;;;;5070923;28;20546;-78
2023/04/21 01:14:38;;;;;;;0.13;0.13;;;;;;;;;;5064702;28;20127;-77
2023/04/21 01:17:04;;;;;;;0.10;0.10;;;;;;;;;;5071591;28;20112;-77
2023/04/21 01:19:34;;;;;;;0.20;0.20;;;;;;;;;;5072000;28;20032;-76
2023/04/21 01:22:00;;;;;;;0.32;0.32;;;;;;;;;;5053106;28;20123;-77
2023/04/21 01:24:36;;;;;;;0.10;0.10;;;;;;;;;;5070986;28;20048;-77
2023/04/21 01:27:02;;;;;;;0.10;0.10;;;;;;;;;;5051874;28;20051;-76
2023/04/21 01:29:31;;;;;;;0.10;0.10;;;;;;;;;;5051493;28;20667;-77
2023/04/21 01:31:56;;;;;;;0.30;0.30;;;;;;;;;;5051542;28;20040;-77
2023/04/21 01:34:23;;;;;;;0.10;0.10;;;;;;;;;;5069496;28;20066;-76
2023/04/21 01:36:48;;;;;;;0.10;0.10;;;;;;;;;;5051570;28;20483;-76
2023/04/21 01:39:14;;;;;;;0.10;0.10;;;;;;;;;;5069836;28;20032;-76
2023/04/21 01:41:39;;;;;;;0.20;0.20;;;;;;;;;;5053761;28;20259;-76
2023/04/21 01:44:05;;;;;;;0.20;0.20;;;;;;;;;;5073607;28;20597;-76
2023/04/21 01:46:30;;;;;;;0.47;0.47;;;;;;;;;;5091636;28;20031;-75
2023/04/21 01:48:56;;;;;;;0.15;0.15;;;;;;;;;;5073649;28;20036;-76
2023/04/21 01:51:21;;;;;;;0.68;0.68;;;;;;;;;;5091818;28;20051;-75
2023/04/21 01:53:47;;;;;;;0.20;0.20;;;;;;;;;;5091760;28;20382;-76
2023/04/21 01:56:13;;;;;;;0.10;0.10;;;;;;;;;;5072524;28;20028;-76
2023/04/21 01:58:39;;;;;;;0.30;0.30;;;;;;;;;;5094127;28;20075;-76
2023/04/21 02:01:04;;;;;;;1.55;1.10;;;;;;;;;;5076638;28;20055;-75
2023/04/21 02:03:30;;;;;;;0.20;0.20;;;;;;;;;;5077094;28;20027;-76
2023/04/21 02:05:55;;;;;;;0.10;0.10;;;;;;;;;;5095163;28;20032;-75
2023/04/21 02:08:20;;;;;;;0.10;0.10;;;;;;;;;;5098702;28;20062;-76
2023/04/21 02:10:46;;;;;;;0.30;0.30;;;;;;;;;;5099245;28;20026;-75
2023/04/21 02:13:12;;;;;;;0.10;0.10;;;;;;;;;;5095880;28;20429;-76
2023/04/21 02:15:37;;;;;;;0.10;0.10;;;;;;;;;;5076962;28;20043;-76
2023/04/21 02:18:03;;;;;;;0.10;0.10;;;;;;;;;;5077072;28;20088;-76
2023/04/21 02:20:29;;;;;;;0.10;0.10;;;;;;;;;;5077826;28;20036;-76
2023/04/21 02:22:55;;;;;;;0.10;0.10;;;;;;;;;;5076753;28;20376;-76
2023/04/21 02:25:20;;;;;;;0.10;0.10;;;;;;;;;;5095225;28;20141;-76
2023/04/21 02:27:45;;;;;;;0.63;0.63;;;;;;;;;;5093941;28;20036;-76
2023/04/21 02:30:11;;;;;;;0.10;0.10;;;;;;;;;;5094791;28;20032;-76
2023/04/21 02:32:36;;;;;;;2.38;2.17;;;;;;;;;;5076739;28;20027;-76
2023/04/21 02:35:03;;;;;;;0.35;0.35;;;;;;;;;;5093481;28;20467;-78
2023/04/21 02:37:29;;;;;;;0.85;0.85;;;;;;;;;;5076841;28;20040;-76
2023/04/21 02:39:54;;;;;;;0.10;0.10;;;;;;;;;;5071943;28;20028;-78
2023/04/21 02:42:20;;;;;;;0.70;0.70;;;;;;;;;;5075761;28;20067;-77
2023/04/21 02:44:46;;;;;;;0.10;0.10;;;;;;;;;;5094337;28;20032;-77
2023/04/21 02:47:13;;;;;;;0.13;0.13;;;;;;;;;;5094475;28;20362;-77
2023/04/21 02:49:43;;;;;;;6.63;6.13;;;;;;;;;;5076478;28;20036;-78
2023/04/21 02:52:10;;;;;;;0.15;0.15;;;;;;;;;;5094527;28;20479;-77
2023/04/21 02:54:36;;;;;;;0.17;0.17;;;;;;;;;;5075287;28;20071;-78
2023/04/21 02:57:02;;;;;;;0.17;0.17;;;;;;;;;;5076320;28;20046;-77
2023/04/21 02:59:27;;;;;;;0.15;0.15;;;;;;;;;;5094280;28;20028;-76
2023/04/21 03:01:53;;;;;;;0.22;0.22;;;;;;;;;;5091834;28;20036;-76
2023/04/21 03:04:18;;;;;;;0.50;0.50;;;;;;;;;;5089187;28;20525;-76
2023/04/21 03:06:44;;;;;;;1.27;1.23;;;;;;;;;;5090439;28;20083;-75
2023/04/21 03:09:11;;;;;;;0.10;0.10;;;;;;;;;;5071919;28;20115;-76
2023/04/21 03:11:36;;;;;;;0.10;0.10;;;;;;;;;;5071210;28;20119;-76
2023/04/21 03:14:01;;;;;;;0.10;0.10;;;;;;;;;;5071819;28;20020;-76
2023/04/21 03:16:27;;;;;;;1.17;0.57;;;;;;;;;;5090095;28;20032;-75
2023/04/21 03:18:52;;;;;;;0.10;0.10;;;;;;;;;;5090072;28;20074;-77
2023/04/21 03:21:18;;;;;;;0.10;0.10;;;;;;;;;;5071952;28;20486;-76
2023/04/21 03:23:43;;;;;;;0.73;0.73;;;;;;;;;;5071280;28;20059;-75
2023/04/21 03:26:09;;;;;;;0.43;0.43;;;;;;;;;;5069808;28;20502;-75
2023/04/21 03:28:35;;;;;;;0.10;0.10;;;;;;;;;;5087697;28;20447;-76
2023/04/21 03:31:01;;;;;;;0.85;0.85;;;;;;;;;;5069892;28;20390;-76
2023/04/21 03:33:27;;;;;;;0.30;0.30;;;;;;;;;;5070112;28;20028;-76
2023/04/21 03:35:53;;;;;;;0.10;0.10;;;;;;;;;;5069617;28;20420;-76
2023/04/21 03:38:18;;;;;;;0.32;0.32;;;;;;;;;;5088304;28;20027;-76
2023/04/21 03:40:44;;;;;;;0.10;0.10;;;;;;;;;;5070758;28;20032;-77
2023/04/21 03:43:10;;;;;;;0.10;0.10;;;;;;;;;;5071933;28;20146;-77
2023/04/21 03:45:36;;;;;;;0.10;0.10;;;;;;;;;;5071254;28;20139;-77
2023/04/21 03:48:02;;;;;;;0.30;0.30;;;;;;;;;;5068595;28;20931;-79
2023/04/21 03:50:28;;;;;;;0.40;0.40;;;;;;;;;;5088606;28;20105;-79
2023/04/21 03:52:53;;;;;;;0.10;0.10;;;;;;;;;;5071934;28;20467;-81
2023/04/21 03:55:19;;;;;;;0.10;0.10;;;;;;;;;;5088159;28;20131;-79
2023/04/21 03:57:44;;;;;;;0.35;0.35;;;;;;;;;;5089481;28;20110;-78
2023/04/21 04:00:10;;;;;;;0.43;0.43;;;;;;;;;;5069139;28;20040;-78
2023/04/21 04:02:38;;;;;;;0.75;0.75;;;;;;;;;;5083423;28;20554;-79
2023/04/21 04:05:05;;;;;;;0.20;0.20;;;;;;;;;;5071274;28;20086;-79
2023/04/21 04:07:31;;;;;;;0.15;0.15;;;;;;;;;;5089313;28;20123;-78
2023/04/21 04:09:57;;;;;;;0.82;0.82;;;;;;;;;;5085790;28;20024;-77
2023/04/21 04:12:22;;;;;;;0.20;0.20;;;;;;;;;;5088979;28;20038;-78
2023/04/21 04:14:47;;;;;;;0.10;0.10;;;;;;;;;;5088734;28;20074;-77
2023/04/21 04:17:13;;;;;;;0.20;0.20;;;;;;;;;;5091944;28;20052;-77
2023/04/21 04:19:38;;;;;;;0.10;0.10;;;;;;;;;;5092520;28;20085;-77
2023/04/21 04:22:04;;;;;;;0.10;0.10;;;;;;;;;;5086765;28;20028;-77
2023/04/21 04:24:32;;;;;;;10.50;3.40;;;;;;;;;;5086678;28;20028;-78
2023/04/21 04:26:58;;;;;;;0.10;0.10;;;;;;;;;;5069335;28;20150;-78
2023/04/21 04:29:24;;;;;;;0.20;0.20;;;;;;;;;;5067514;28;20028;-76
2023/04/21 04:31:49;;;;;;;0.32;0.32;;;;;;;;;;5068272;28;20043;-76
2023/04/21 04:34:15;;;;;;;0.10;0.10;;;;;;;;;;5068781;28;20044;-76
2023/04/21 04:36:41;;;;;;;0.13;0.13;;;;;;;;;;5068923;28;20033;-79
2023/04/21 04:39:09;;;;;;;0.10;0.10;;;;;;;;;;5068594;28;20480;-77
2023/04/21 04:41:35;;;;;;;1.15;1.15;;;;;;;;;;5068441;28;20387;-76
2023/04/21 04:44:03;;;;;;;0.30;0.30;;;;;;;;;;5067976;28;20021;-77
2023/04/21 04:46:29;;;;;;;0.30;0.30;;;;;;;;;;5068196;28;20032;-76
2023/04/21 04:48:55;;;;;;;0.98;0.98;;;;;;;;;;5068624;28;20040;-76
2023/04/21 04:51:22;;;;;;;0.20;0.20;;;;;;;;;;5070941;28;20039;-77
2023/04/21 04:53:47;;;;;;;0.50;0.50;;;;;;;;;;5088459;28;20115;-77
2023/04/21 04:56:12;;;;;;;0.10;0.10;;;;;;;;;;5087395;28;20128;-76
2023/04/21 04:58:38;;;;;;;0.10;0.10;;;;;;;;;;5088319;28;20032;-76
2023/04/21 05:01:13;;;;;;;0.90;0.73;;;;;;;;;;5085206;28;20043;-78
2023/04/21 05:03:39;;;;;;;0.10;0.10;;;;;;;;;;5088586;28;20119;-77
2023/04/21 05:06:04;;;;;;;0.50;0.50;;;;;;;;;;5085065;28;20115;-76
2023/04/21 05:08:30;;;;;;;0.38;0.38;;;;;;;;;;5088702;28;20494;-77
2023/04/21 05:10:55;;;;;;;0.20;0.20;;;;;;;;;;5087734;28;20475;-77
2023/04/21 05:13:21;;;;;;;0.20;0.20;;;;;;;;;;5070115;28;20036;-77
2023/04/21 05:15:46;;;;;;;0.20;0.20;;;;;;;;;;5081378;28;20032;-78
2023/04/21 05:18:12;;;;;;;0.10;0.10;;;;;;;;;;5071786;28;20024;-79
2023/04/21 05:20:40;;;;;;;0.10;0.10;;;;;;;;;;5079784;28;20430;-76
2023/04/21 05:23:05;;;;;;;0.10;0.10;;;;;;;;;;5074578;28;20036;-80
2023/04/21 05:25:30;;;;;;;0.30;0.30;;;;;;;;;;5073654;28;20032;-77
2023/04/21 05:27:56;;;;;;;0.20;0.20;;;;;;;;;;5077780;28;20495;-77
2023/04/21 05:30:21;;;;;;;0.28;0.28;;;;;;;;;;5076632;28;20024;-76
2023/04/21 05:32:46;;;;;;;0.20;0.20;;;;;;;;;;5038563;28;20039;-78
2023/04/21 05:35:15;;;;;;;0.20;0.20;;;;;;;;;;5074116;28;20056;-75
2023/04/21 05:37:41;;;;;;;0.50;0.50;;;;;;;;;;5071484;28;20071;-77
2023/04/21 05:40:06;;;;;;;0.20;0.20;;;;;;;;;;5071139;28;20286;-76
2023/04/21 05:42:32;;;;;;;0.17;0.17;;;;;;;;;;5071463;28;20513;-75
2023/04/21 05:44:57;;;;;;;0.22;0.22;;;;;;;;;;5073644;28;20042;-75
2023/04/21 05:47:23;;;;;;;0.57;0.57;;;;;;;;;;5081938;28;20509;-75
2023/04/21 05:49:52;;;;;;;0.30;0.30;;;;;;;;;;5086395;28;20029;-76
2023/04/21 05:52:18;;;;;;;1.95;1.85;;;;;;;;;;5079412;28;20067;-78
2023/04/21 05:54:44;;;;;;;0.10;0.10;;;;;;;;;;5073202;28;20036;-76
2023/04/21 05:57:09;;;;;;;0.45;0.45;;;;;;;;;;5085253;28;20115;-76
2023/04/21 05:59:35;;;;;;;0.30;0.30;;;;;;;;;;5080635;28;20063;-77
2023/04/21 06:02:01;;;;;;;0.20;0.20;;;;;;;;;;5068803;28;20111;-77
2023/04/21 06:04:26;;;;;;;0.20;0.20;;;;;;;;;;5051099;28;20085;-79
2023/04/21 06:06:51;;;;;;;4.95;2.75;;;;;;;;;;5069301;28;20033;-76
2023/04/21 06:09:17;;;;;;;0.40;0.40;;;;;;;;;;5069390;28;20040;-75
2023/04/21 06:11:42;;;;;;;0.20;0.20;;;;;;;;;;5069086;28;20032;-76
2023/04/21 06:14:08;;;;;;;0.40;0.40;;;;;;;;;;5070122;28;20170;-74
2023/04/21 06:16:33;;;;;;;0.30;0.30;;;;;;;;;;5070865;28;20538;-74
2023/04/21 06:18:59;;;;;;;0.20;0.20;;;;;;;;;;5070882;28;20033;-76
2023/04/21 06:21:24;;;;;;;0.10;0.10;;;;;;;;;;5071183;28;20021;-74
2023/04/21 06:23:50;;;;;;;1.38;1.33;;;;;;;;;;5071120;28;20167;-74
2023/04/21 06:26:15;;;;;;;0.57;0.57;;;;;;;;;;5074313;28;20020;-75
2023/04/21 06:28:40;;;;;;;0.30;0.30;;;;;;;;;;5074135;28;20047;-73
2023/04/21 06:31:06;;;;;;;0.20;0.20;;;;;;;;;;5072248;28;20317;-74
2023/04/21 06:33:32;;;;;;;0.20;0.20;;;;;;;;;;5071407;28;20039;-74
2023/04/21 06:35:57;;;;;;;0.20;0.20;;;;;;;;;;5070518;28;20058;-73
2023/04/21 06:38:23;;;;;;;1.05;0.63;;;;;;;;;;5070121;28;20036;-74
2023/04/21 06:40:49;;;;;;;0.20;0.20;;;;;;;;;;5053048;28;20032;-76
2023/04/21 06:43:15;;;;;;;0.20;0.20;;;;;;;;;;5069567;28;20554;-75
2023/04/21 06:45:40;;;;;;;0.20;0.20;;;;;;;;;;5070571;28;20111;-75
2023/04/21 06:48:06;;;;;;;0.20;0.20;;;;;;;;;;5070465;28;20044;-74
2023/04/21 06:50:31;;;;;;;0.20;0.20;;;;;;;;;;5070879;28;20036;-74
2023/04/21 06:52:56;;;;;;;0.20;0.20;;;;;;;;;;5070449;28;20440;-76
2023/04/21 06:55:22;;;;;;;0.30;0.30;;;;;;;;;;5081710;28;20050;-76
2023/04/21 06:57:47;;;;;;;0.20;0.20;;;;;;;;;;5069918;28;20044;-75
2023/04/21 07:00:13;;;;;;;0.20;0.20;;;;;;;;;;5070155;28;20025;-75
2023/04/21 07:02:40;;;;;;;0.38;0.38;;;;;;;;;;5070430;28;20405;-75
2023/04/21 07:05:06;;;;;;;0.20;0.20;;;;;;;;;;5056208;28;20518;-75
2023/04/21 07:07:32;;;;;;;0.20;0.20;;;;;;;;;;5090175;28;20067;-73
2023/04/21 07:09:57;;;;;;;0.20;0.20;;;;;;;;;;5072009;28;20399;-77
2023/04/21 07:12:22;;;;;;;0.22;0.22;;;;;;;;;;5090508;28;20039;-75
2023/04/21 07:14:48;;;;;;;0.30;0.30;;;;;;;;;;5089809;28;20043;-74
2023/04/21 07:17:13;;;;;;;0.20;0.20;;;;;;;;;;5072005;28;20027;-75
2023/04/21 07:19:39;;;;;;;0.20;0.20;;;;;;;;;;5089907;28;20089;-74
2023/04/21 07:22:04;;;;;;;0.20;0.20;;;;;;;;;;5087898;28;20059;-76
2023/04/21 07:24:30;;;;;;;1.00;1.00;;;;;;;;;;5080709;28;20028;-75
2023/04/21 07:26:56;;;;;;;0.50;0.40;;;;;;;;;;5069710;28;20032;-75
2023/04/21 07:29:21;;;;;;;0.20;0.20;;;;;;;;;;5069092;28;20021;-76
2023/04/21 07:31:47;;;;;;;0.20;0.20;;;;;;;;;;5069295;28;20035;-75
2023/04/21 07:34:12;;;;;;;0.20;0.20;;;;;;;;;;5070309;28;20029;-76
2023/04/21 07:36:38;;;;;;;0.20;0.20;;;;;;;;;;5069727;28;20040;-74
2023/04/21 07:39:04;;;;;;;0.20;0.20;;;;;;;;;;5069432;28;20035;-74
2023/04/21 07:41:29;;;;;;;0.20;0.20;;;;;;;;;;5069400;28;20455;-74
2023/04/21 07:43:55;;;;;;;0.20;0.20;;;;;;;;;;5069033;28;20115;-74
2023/04/21 07:46:21;;;;;;;1.85;1.75;;;;;;;;;;5069428;28;20103;-75
2023/04/21 07:48:47;;;;;;;0.40;0.40;;;;;;;;;;5058018;28;20421;-75
2023/04/21 07:51:14;;;;;;;0.20;0.20;;;;;;;;;;5081862;28;20046;-75
2023/04/21 07:53:40;;;;;;;0.20;0.20;;;;;;;;;;5082563;28;20031;-76
2023/04/21 07:56:06;;;;;;;0.28;0.28;;;;;;;;;;5076149;28;20036;-76
2023/04/21 07:58:31;;;;;;;0.73;0.73;;;;;;;;;;5076574;28;20126;-76
2023/04/21 08:00:57;;;;;;;0.20;0.20;;;;;;;;;;5081191;28;20042;-74
2023/04/21 08:03:22;;;;;;;0.20;0.20;;;;;;;;;;5088947;28;20395;-70
2023/04/21 08:05:48;;;;;;;0.40;0.40;;;;;;;;;;5067358;28;20024;-70
2023/04/21 08:08:19;;;;;;;0.95;0.80;;;;;;;;;;5081742;28;20039;-70
2023/04/21 08:10:44;;;;;;;0.20;0.20;;;;;;;;;;5066980;28;20032;-70
2023/04/21 08:13:10;;;;;;;0.20;0.20;;;;;;;;;;5086802;28;20043;-72
2023/04/21 08:15:35;;;;;;;0.30;0.30;;;;;;;;;;5067109;28;20040;-72
2023/04/21 08:18:01;;;;;;;0.60;0.60;;;;;;;;;;5057334;28;20032;-75
2023/04/21 08:20:26;;;;;;;0.88;0.88;;;;;;;;;;5082313;28;20117;-70
2023/04/21 08:22:51;;;;;;;8.48;0.77;;;;;;;;;;5086336;28;20039;-71
2023/04/21 08:25:17;;;;;;;0.20;0.20;;;;;;;;;;5087094;28;20047;-71
2023/04/21 08:27:42;;;;;;;0.20;0.20;;;;;;;;;;5089140;28;20036;-70
2023/04/21 08:30:08;;;;;;;0.20;0.20;;;;;;;;;;5088819;28;20035;-71
2023/04/21 08:32:33;;;;;;;0.20;0.20;;;;;;;;;;5089176;28;20098;-72
2023/04/21 08:34:59;;;;;;;0.70;0.70;;;;;;;;;;5091742;28;20031;-71
2023/04/21 08:37:24;;;;;;;0.20;0.20;;;;;;;;;;5091749;28;20309;-73
2023/04/21 08:39:50;;;;;;;0.30;0.30;;;;;;;;;;5071854;28;20023;-72
2023/04/21 08:42:16;;;;;;;0.35;0.35;;;;;;;;;;5089055;28;20040;-72
2023/04/21 08:44:42;;;;;;;0.40;0.40;;;;;;;;;;5088468;28;20047;-75
2023/04/21 08:47:10;;;;;;;0.30;0.30;;;;;;;;;;5085684;28;20390;-74
2023/04/21 08:49:37;;;;;;;0.30;0.30;;;;;;;;;;5088764;28;20119;-70
2023/04/21 08:52:02;;;;;;;0.30;0.30;;;;;;;;;;5065155;28;20052;-72
2023/04/21 08:54:27;;;;;;;0.30;0.30;;;;;;;;;;5050797;28;20087;-71
2023/04/21 08:56:53;;;;;;;0.20;0.20;;;;;;;;;;5068663;28;20028;-72
2023/04/21 08:59:18;;;;;;;0.28;0.28;;;;;;;;;;5076625;28;20039;-70
2023/04/21 09:02:03;;;;;;;0.28;0.28;;;;;;;;;;5088529;28;20031;-71
2023/04/21 09:04:29;;;;;;;0.30;0.30;;;;;;;;;;5088687;28;20028;-70
2023/04/21 09:06:54;;;;;;;0.28;0.28;;;;;;;;;;5089595;28;20036;-71
2023/04/21 09:09:20;;;;;;;0.20;0.20;;;;;;;;;;5090851;28;20119;-73
2023/04/21 09:11:53;;;;;;;0.73;0.73;;;;;;;;;;5091844;28;20059;-71
2023/04/21 09:14:19;;;;;;;0.30;0.30;;;;;;;;;;5092135;28;20054;-70
2023/04/21 09:16:44;;;;;;;0.30;0.30;;;;;;;;;;5091813;28;20024;-71
2023/04/21 09:19:16;;;;;;;0.20;0.20;;;;;;;;;;5090944;28;20133;-71
2023/04/21 09:21:43;;;;;;;0.70;0.70;;;;;;;;;;5091874;28;20395;-70
2023/04/21 09:24:08;;;;;;;0.50;0.50;;;;;;;;;;5091577;28;20024;-71
2023/04/21 09:26:33;;;;;;;0.20;0.20;;;;;;;;;;5091806;28;20031;-70
2023/04/21 09:28:59;;;;;;;0.20;0.20;;;;;;;;;;5091743;28;20490;-70
2023/04/21 09:31:25;;;;;;;1.08;0.45;;;;;;;;;;5090691;28;20027;-71
2023/04/21 09:33:56;;;;;;;1.20;1.10;;;;;;;;;;5090066;28;20028;-75
2023/04/21 09:36:23;;;;;;;0.20;0.20;;;;;;;;;;5089885;28;20035;-71
2023/04/21 09:38:54;;;;;;;0.30;0.30;;;;;;;;;;5090163;28;20097;-71
2023/04/21 09:41:20;;;;;;;2.28;1.75;;;;;;;;;;5089913;28;20081;-71
2023/04/21 09:43:46;;;;;;;0.22;0.22;;;;;;;;;;5089638;28;20024;-74
2023/04/21 09:46:14;;;;;;;1.75;0.85;;;;;;;;;;5090355;28;20115;-70
2023/04/21 09:48:42;;;;;;;3.13;2.20;;;;;;;;;;5091502;28;20039;-70
2023/04/21 09:51:08;;;;;;;1.50;1.05;;;;;;;;;;5091677;28;20052;-71
2023/04/21 09:53:33;;;;;;;1.60;1.30;;;;;;;;;;5091253;28;20447;-70
2023/04/21 09:55:59;;;;;;;4.72;2.45;;;;;;;;;;5091117;28;20081;-69
2023/04/21 09:58:27;;;;;;;0.43;0.43;;;;;;;;;;5091263;28;20050;-70
2023/04/21 10:00:53;;;;;;;1.75;1.40;;;;;;;;;;5091131;28;20506;-70
2023/04/21 10:03:19;;;;;;;1.48;1.20;;;;;;;;;;5091373;28;20040;-70
2023/04/21 10:05:45;;;;;;;0.35;0.35;;;;;;;;;;5072711;28;20032;-71
2023/04/21 10:08:10;;;;;;;0.73;0.55;;;;;;;;;;5090699;28;20039;-70
2023/04/21 10:10:36;;;;;;;3.08;1.92;;;;;;;;;;5091004;28;20063;-74
2023/04/21 10:13:01;;;;;;;3.40;2.85;;;;;;;;;;5090961;28;20032;-71
2023/04/21 10:15:28;;;;;;;0.50;0.50;;;;;;;;;;5091165;28;20039;-71
2023/04/21 10:18:09;;;;;;;0.20;0.20;;;;;;;;;;5090380;28;20039;-74
2023/04/21 10:20:49;;;;;;;3.17;1.77;;;;;;;;;;5090658;28;20036;-71
2023/04/21 10:23:24;;;;;;;0.35;0.35;;;;;;;;;;5091019;28;20043;-70
2023/04/21 10:25:50;;;;;;;4.45;3.20;;;;;;;;;;5090849;28;20040;-71
2023/04/21 10:28:18;;;;;;;0.38;0.38;;;;;;;;;;5090776;28;20023;-70
2023/04/21 10:30:43;;;;;;;0.35;0.35;;;;;;;;;;5091284;28;20105;-69
2023/04/21 10:33:09;;;;;;;7.72;3.85;;;;;;;;;;5090511;28;20136;-71
2023/04/21 10:35:53;;;;;;;5.65;3.40;;;;;;;;;;5090437;28;20032;-70
2023/04/21 10:38:37;;;;;;;0.40;0.40;;;;;;;;;;5091355;28;20036;-70
2023/04/21 10:41:32;;;;;;;0.55;0.50;;;;;;;;;;5072349;28;20160;-71
2023/04/21 10:43:58;;;;;;;1.40;1.35;;;;;;;;;;5075196;28;20507;-70
2023/04/21 10:46:37;;;;;;;0.70;0.60;;;;;;;;;;5093165;28;20088;-71
2023/04/21 10:49:05;;;;;;;0.22;0.22;;;;;;;;;;5090560;28;20028;-70
2023/04/21 10:51:31;;;;;;;0.25;0.25;;;;;;;;;;5090527;28;20170;-70
2023/04/21 10:53:57;;;;;;;0.30;0.30;;;;;;;;;;5090363;28;20043;-71
2023/04/21 10:56:23;;;;;;;0.55;0.55;;;;;;;;;;5090743;28;20391;-70
2023/04/21 10:58:50;;;;;;;2.30;2.08;;;;;;;;;;5090061;28;20047;-70
2023/04/21 11:01:16;;;;;;;1.75;1.13;;;;;;;;;;5090023;28;20051;-74
2023/04/21 11:03:41;;;;;;;0.68;0.68;;;;;;;;;;5090700;28;20394;-70
2023/04/21 11:06:13;;;;;;;0.20;0.20;;;;;;;;;;5089762;28;20024;-70
2023/04/21 11:08:53;;;;;;;2.30;1.38;;;;;;;;;;5090300;28;20032;-71
2023/04/21 11:11:23;;;;;;;0.47;0.47;;;;;;;;;;5090367;28;20044;-74
2023/04/21 11:13:48;;;;;;;1.17;0.73;;;;;;;;;;5090132;28;20028;-70
2023/04/21 11:16:14;;;;;;;0.20;0.20;;;;;;;;;;5089959;28;20036;-70
2023/04/21 11:18:40;;;;;;;1.05;0.93;;;;;;;;;;5090231;28;20020;-70
2023/04/21 11:21:10;;;;;;;2.40;1.88;;;;;;;;;;5071889;28;20039;-70
2023/04/21 11:23:40;;;;;;;3.65;0.90;;;;;;;;;;5090020;28;20082;-71
2023/04/21 11:26:06;;;;;;;0.90;0.80;;;;;;;;;;5090020;28;20279;-70
2023/04/21 11:28:31;;;;;;;0.22;0.22;;;;;;;;;;5090249;28;20062;-72
2023/04/21 11:30:57;;;;;;;2.05;1.05;;;;;;;;;;5090199;28;20032;-70
2023/04/21 11:33:23;;;;;;;0.32;0.32;;;;;;;;;;5090099;28;20060;-70
2023/04/21 11:35:50;;;;;;;1.10;1.05;;;;;;;;;;5089234;28;20098;-71
2023/04/21 11:38:17;;;;;;;0.65;0.50;;;;;;;;;;5089735;28;20028;-71
2023/04/21 11:40:43;;;;;;;1.77;1.20;;;;;;;;;;5090016;28;20115;-70
2023/04/21 11:43:09;;;;;;;0.20;0.20;;;;;;;;;;5089955;28;20028;-70
2023/04/21 11:45:35;;;;;;;1.75;1.05;;;;;;;;;;5089762;28;20429;-70
2023/04/21 11:48:16;;;;;;;0.52;0.52;;;;;;;;;;5089503;28;20100;-70
2023/04/21 11:50:48;;;;;;;0.73;0.73;;;;;;;;;;5089741;28;20387;-70
2023/04/21 11:53:14;;;;;;;1.83;0.73;;;;;;;;;;5089440;28;20402;-70
2023/04/21 11:55:44;;;;;;;1.27;1.10;;;;;;;;;;5089309;28;20127;-70
2023/04/21 11:58:11;;;;;;;1.17;0.73;;;;;;;;;;5071434;28;20491;-70
2023/04/21 12:00:36;;;;;;;0.95;0.68;;;;;;;;;;5089345;28;20153;-70
2023/04/21 12:03:07;;;;;;;0.80;0.70;;;;;;;;;;5089240;28;20217;-73
2023/04/21 12:05:35;;;;;;;1.25;1.00;;;;;;;;;;5089815;28;20040;-71
2023/04/21 12:08:02;;;;;;;0.63;0.57;;;;;;;;;;5089632;28;20387;-70
2023/04/21 12:10:28;;;;;;;0.20;0.20;;;;;;;;;;5089543;28;20115;-71
2023/04/21 12:12:55;;;;;;;0.43;0.43;;;;;;;;;;5089690;28;20448;-70
2023/04/21 12:15:22;;;;;;;3.42;2.08;;;;;;;;;;5089246;28;20039;-70
2023/04/21 12:17:51;;;;;;;2.47;1.63;;;;;;;;;;5088907;28;20118;-71
2023/04/21 12:20:20;;;;;;;0.40;0.40;;;;;;;;;;5089185;28;20050;-70
2023/04/21 12:22:46;;;;;;;;;;;;;;;;;;5071343;28;20039;-71
2023/04/21 12:25:11;;;;;;;1.83;1.00;;;;;;;;;;5088952;28;20422;-70
2023/04/21 12:27:37;;;;;;;0.65;0.65;;;;;;;;;;5089108;28;20123;-73
2023/04/21 12:30:02;;;;;;;3.88;1.85;;;;;;;;;;5088549;28;20078;-71
2023/04/21 12:32:28;;;;;;;1.05;0.90;;;;;;;;;;5071035;28;20035;-70
2023/04/21 12:34:54;;;;;;;0.43;0.43;;;;;;;;;;5089222;28;20040;-70
2023/04/21 12:37:20;;;;;;;0.50;0.50;;;;;;;;;;5088728;28;20472;-70
2023/04/21 12:39:46;;;;;;;1.15;0.70;;;;;;;;;;5088670;28;20055;-74
2023/04/21 12:42:11;;;;;;;1.73;1.17;;;;;;;;;;5088488;28;20094;-70
2023/04/21 12:44:37;;;;;;;0.55;0.55;;;;;;;;;;5088928;28;20372;-70
2023/04/21 12:47:03;;;;;;;0.32;0.32;;;;;;;;;;5088799;28;20421;-71
2023/04/21 12:49:28;;;;;;;2.08;1.48;;;;;;;;;;5088912;28;20375;-71
2023/04/21 12:51:54;;;;;;;2.47;1.55;;;;;;;;;;5088368;28;20034;-70
2023/04/21 12:54:19;;;;;;;1.40;0.95;;;;;;;;;;5089305;28;20352;-71
2023/04/21 12:56:45;;;;;;;1.27;1.13;;;;;;;;;;5073510;28;20483;-70
2023/04/21 12:59:11;;;;;;;4.05;2.28;;;;;;;;;;5091255;28;20379;-69
2023/04/21 13:01:37;;;;;;;0.88;0.80;;;;;;;;;;5090015;28;20038;-70
2023/04/21 13:04:02;;;;;;;2.15;1.45;;;;;;;;;;5089124;28;20484;-70
2023/04/21 13:06:28;;;;;;;1.75;1.33;;;;;;;;;;5089175;28;20028;-70
2023/04/21 13:08:53;;;;;;;3.33;1.58;;;;;;;;;;5088720;28;20475;-70
2023/04/21 13:11:19;;;;;;;1.25;0.82;;;;;;;;;;5088541;28;20040;-70
2023/04/21 13:13:47;;;;;;;1.90;1.13;;;;;;;;;;5088605;28;20038;-71
2023/04/21 13:16:12;;;;;;;2.00;1.00;;;;;;;;;;5088600;28;20467;-70
2023/04/21 13:18:38;;;;;;;4.00;1.70;;;;;;;;;;5088587;28;20036;-71
2023/04/21 13:21:04;;;;;;;1.40;1.00;;;;;;;;;;5088466;28;20027;-71
2023/04/21 13:23:29;;;;;;;0.75;0.65;;;;;;;;;;5088751;28;20043;-73
2023/04/21 13:25:55;;;;;;;2.58;1.52;;;;;;;;;;5088338;28;20081;-70
2023/04/21 13:28:21;;;;;;;0.50;0.47;;;;;;;;;;5088560;28;20921;-70
2023/04/21 13:30:46;;;;;;;3.50;1.90;;;;;;;;;;5088516;28;20028;-70
2023/04/21 13:33:12;;;;;;;1.70;1.30;;;;;;;;;;5088279;28;20028;-70
2023/04/21 13:35:37;;;;;;;1.20;0.93;;;;;;;;;;5088136;28;20036;-70
2023/04/21 13:38:03;;;;;;;2.72;1.92;;;;;;;;;;5088230;28;20035;-70
2023/04/21 13:40:28;;;;;;;1.85;1.15;;;;;;;;;;5088189;28;20040;-70
2023/04/21 13:42:54;;;;;;;2.95;1.50;;;;;;;;;;5087843;28;20035;-70
2023/04/21 13:45:19;;;;;;;2.08;1.48;;;;;;;;;;5087960;28;20035;-70
2023/04/21 13:47:45;;;;;;;2.75;1.45;;;;;;;;;;5087870;28;20394;-71
2023/04/21 13:50:10;;;;;;;0.38;0.35;;;;;;;;;;5088025;28;20047;-70
2023/04/21 13:52:36;;;;;;;0.20;0.20;;;;;;;;;;5087993;28;20242;-70
2023/04/21 13:55:04;;;;;;;2.25;1.45;;;;;;;;;;5091070;28;20043;-71
2023/04/21 13:57:29;;;;;;;2.40;1.17;;;;;;;;;;5091391;28;20063;-70
2023/04/21 13:59:55;;;;;;;0.90;0.80;;;;;;;;;;5090996;28;20118;-70
2023/04/21 14:02:22;;;;;;;2.03;0.77;;;;;;;;;;5091368;28;20677;-70
2023/04/21 14:04:48;;;;;;;1.80;0.95;;;;;;;;;;5073129;28;20040;-70
2023/04/21 14:07:16;;;;;;;0.63;0.63;;;;;;;;;;5091321;28;20130;-70
2023/04/21 14:09:42;;;;;;;2.45;1.17;;;;;;;;;;5091314;28;20043;-70
2023/04/21 14:12:09;;;;;;;3.55;1.50;;;;;;;;;;5090778;28;20775;-70
2023/04/21 14:14:34;;;;;;;2.85;1.52;;;;;;;;;;5073169;28;20139;-71
2023/04/21 14:17:00;;;;;;;1.85;1.13;;;;;;;;;;5091042;28;20099;-73
2023/04/21 14:19:25;;;;;;;1.20;1.05;;;;;;;;;;5073701;28;20031;-70
2023/04/21 14:21:51;;;;;;;1.50;0.95;;;;;;;;;;5090842;28;20505;-70
2023/04/21 14:24:16;;;;;;;2.38;0.95;;;;;;;;;;5091297;28;20028;-70
2023/04/21 14:26:42;;;;;;;1.30;0.88;;;;;;;;;;5090941;28;20039;-70
2023/04/21 14:29:07;;;;;;;2.28;0.95;;;;;;;;;;5090771;28;20024;-70
2023/04/21 14:31:33;;;;;;;1.23;0.90;;;;;;;;;;5090702;28;20051;-71
2023/04/21 14:33:58;;;;;;;1.27;1.10;;;;;;;;;;5055788;28;20028;-70
2023/04/21 14:36:24;;;;;;;0.50;0.50;;;;;;;;;;5090849;28;20065;-73
2023/04/21 14:38:49;;;;;;;0.52;0.52;;;;;;;;;;5090850;28;20495;-70